createdAt,value
2023-01-21T00:01:20.716Z,100364.12
2023-01-21T00:03:49.127Z,100361.36
2023-01-21T00:06:17.887Z,100362.88
2023-01-21T00:08:46.174Z,100356.08
2023-01-21T00:11:15.960Z,100351.73
2023-01-21T00:13:44.994Z,100357.98
2023-01-21T00:16:14.060Z,100359.41
2023-01-21T00:18:42.578Z,100363.09
2023-01-21T00:21:10.969Z,100359.92
2023-01-21T00:23:40.047Z,100354.77
2023-01-21T00:26:12.127Z,100350.85
2023-01-21T00:28:44.928Z,100353.80
2023-01-21T00:31:13.933Z,100350.83
2023-01-21T00:33:43.306Z,100343.02
2023-01-21T00:36:14.009Z,100338.22
2023-01-21T00:38:42.223Z,100338.95
2023-01-21T00:41:13.104Z,100332.33
2023-01-21T00:43:42.688Z,100328.82
2023-01-21T00:46:11.940Z,100325.92
2023-01-21T00:48:40.711Z,100323.37
2023-01-21T00:51:10.185Z,100324.50
2023-01-21T00:53:42.023Z,100336.28
2023-01-21T00:56:12.170Z,100336.78
2023-01-21T00:58:43.510Z,100337.93
2023-01-21T01:01:18.030Z,100335.59
2023-01-21T01:03:48.069Z,100334.35
2023-01-21T01:06:25.159Z,100332.63
2023-01-21T01:08:58.049Z,100328.56
2023-01-21T01:11:27.842Z,100331.13
2023-01-21T01:13:56.754Z,100335.58
2023-01-21T01:16:25.062Z,100334.52
2023-01-21T01:18:53.520Z,100323.95
2023-01-21T01:21:22.534Z,100324.22
2023-01-21T01:23:52.460Z,100331.77
2023-01-21T01:26:22.318Z,100336.29
2023-01-21T01:28:51.155Z,100340.41
2023-01-21T01:31:21.217Z,100337.40
2023-01-21T01:33:49.674Z,100338.07
2023-01-21T01:36:23.804Z,100338.55
2023-01-21T01:38:53.694Z,100336.94
2023-01-21T01:41:24.797Z,100331.77
2023-01-21T01:44:02.237Z,100334.15
2023-01-21T01:46:36.549Z,100334.92
2023-01-21T01:49:17.317Z,100333.70
2023-01-21T01:51:54.401Z,100335.99
2023-01-21T01:54:28.822Z,100338.63
2023-01-21T01:57:01.653Z,100336.15
2023-01-21T01:59:32.144Z,100334.92
2023-01-21T02:02:06.859Z,100337.52
2023-01-21T02:04:45.386Z,100344.45
2023-01-21T02:07:15.521Z,100348.70
2023-01-21T02:09:43.793Z,100353.36
2023-01-21T02:12:12.687Z,100355.59
2023-01-21T02:14:44.943Z,100353.88
2023-01-21T02:17:35.253Z,100359.55
2023-01-21T02:20:25.132Z,100362.30
2023-01-21T02:23:12.644Z,100363.10
2023-01-21T02:25:53.715Z,100360.56
2023-01-21T02:28:50.650Z,100359.48
2023-01-21T02:31:19.138Z,100361.44
2023-01-21T02:34:29.374Z,100364.45
2023-01-21T02:37:32.959Z,100355.55
2023-01-21T02:40:06.267Z,100347.98
2023-01-21T02:42:50.922Z,100339.87
2023-01-21T02:45:44.679Z,100335.51
2023-01-21T02:48:25.239Z,100338.36
2023-01-21T02:50:54.803Z,100339.41
2023-01-21T02:53:31.215Z,100344.67
2023-01-21T02:56:05.544Z,100347.56
2023-01-21T02:58:38.444Z,100349.48
2023-01-21T03:01:14.009Z,100358.98
2023-01-21T03:04:00.671Z,100359.94
2023-01-21T03:06:49.214Z,100359.68
2023-01-21T03:09:17.712Z,100364.00
2023-01-21T03:11:56.891Z,100361.67
2023-01-21T03:15:09.324Z,100359.84
2023-01-21T03:18:04.212Z,100360.83
2023-01-21T03:20:42.527Z,100361.09
2023-01-21T03:23:16.558Z,100354.52
2023-01-21T03:25:47.278Z,100354.30
2023-01-21T03:28:21.797Z,100356.89
2023-01-21T03:30:59.310Z,100352.61
2023-01-21T03:33:30.129Z,100344.16
2023-01-21T03:36:06.754Z,100335.01
2023-01-21T03:38:42.171Z,100337.56
2023-01-21T03:41:28.282Z,100340.38
2023-01-21T03:43:56.625Z,100342.63
2023-01-21T03:46:38.312Z,100344.78
2023-01-21T03:49:19.317Z,100350.77
2023-01-21T03:51:52.069Z,100352.25
2023-01-21T03:54:20.553Z,100355.30
2023-01-21T03:56:48.983Z,100359.52
2023-01-21T03:59:17.420Z,100365.39
2023-01-21T04:01:45.705Z,100365.50
2023-01-21T04:04:14.194Z,100371.27
2023-01-21T04:06:42.884Z,100377.98
2023-01-21T04:09:11.591Z,100381.27
2023-01-21T04:11:39.855Z,100389.78
2023-01-21T04:14:08.850Z,100388.73
2023-01-21T04:16:37.266Z,100388.73
2023-01-21T04:19:05.521Z,100402.33
2023-01-21T04:21:33.902Z,100401.39
2023-01-21T04:24:02.906Z,100402.80
2023-01-21T04:26:31.705Z,100408.20
2023-01-21T04:29:00.284Z,100405.13
2023-01-21T04:31:28.715Z,100408.45
2023-01-21T04:33:56.994Z,100419.24
2023-01-21T04:36:25.128Z,100417.92
2023-01-21T04:38:53.444Z,100425.02
2023-01-21T04:41:23.859Z,100430.38
2023-01-21T04:43:53.662Z,100433.00
2023-01-21T04:46:22.554Z,100434.05
2023-01-21T04:48:50.959Z,100432.27
2023-01-21T04:51:19.375Z,100435.11
2023-01-21T04:53:47.707Z,100439.85
2023-01-21T04:56:15.894Z,100448.55
2023-01-21T04:58:44.381Z,100458.31
2023-01-21T05:01:12.901Z,100464.39
2023-01-21T05:03:41.256Z,100467.73
2023-01-21T05:06:09.850Z,100467.70
2023-01-21T05:08:38.338Z,100470.07
2023-01-21T05:11:12.540Z,100477.32
2023-01-21T05:13:40.718Z,100475.27
2023-01-21T05:16:10.270Z,100467.02
2023-01-21T05:18:39.023Z,100470.70
2023-01-21T05:21:08.152Z,100479.71
2023-01-21T05:23:36.413Z,100495.44
2023-01-21T05:26:04.694Z,100495.00
2023-01-21T05:28:33.906Z,100497.36
2023-01-21T05:31:03.800Z,100509.66
2023-01-21T05:33:34.242Z,100511.63
2023-01-21T05:36:03.953Z,100512.71
2023-01-21T05:38:32.445Z,100521.58
2023-01-21T05:41:02.671Z,100526.69
2023-01-21T05:43:31.266Z,100543.31
2023-01-21T05:45:59.655Z,100559.43
2023-01-21T05:48:29.681Z,100575.38
2023-01-21T05:50:58.893Z,100579.39
2023-01-21T05:53:27.702Z,100590.10
2023-01-21T05:55:57.181Z,100598.37
2023-01-21T05:58:26.390Z,100607.50
2023-01-21T06:00:56.603Z,100614.63
2023-01-21T06:03:26.014Z,100617.77
2023-01-21T06:05:54.390Z,100628.91
2023-01-21T06:08:23.704Z,100645.05
2023-01-21T06:10:56.341Z,100648.73
2023-01-21T06:13:25.074Z,100649.94
2023-01-21T06:15:57.287Z,100651.38
2023-01-21T06:18:25.743Z,100662.63
2023-01-21T06:20:54.218Z,100664.23
2023-01-21T06:23:22.707Z,100662.92
2023-01-21T06:25:51.090Z,100665.14
2023-01-21T06:28:19.776Z,100667.39
2023-01-21T06:30:48.419Z,100681.46
2023-01-21T06:33:16.750Z,100684.11
2023-01-21T06:35:44.941Z,100692.93
2023-01-21T06:38:14.079Z,100702.45
2023-01-21T06:40:43.583Z,100715.77
2023-01-21T06:43:11.928Z,100726.61
2023-01-21T06:45:40.409Z,100724.98
2023-01-21T06:48:08.590Z,100715.46
2023-01-21T06:50:36.974Z,100715.27
2023-01-21T06:53:05.567Z,100713.61
2023-01-21T06:55:34.057Z,100718.41
2023-01-21T06:58:02.956Z,100709.66
2023-01-21T07:00:31.643Z,100715.88
2023-01-21T07:03:00.899Z,100719.39
2023-01-21T07:05:29.269Z,100728.59
2023-01-21T07:07:57.821Z,100742.02
2023-01-21T07:10:26.508Z,100744.82
2023-01-21T07:12:54.685Z,100747.08
2023-01-21T07:15:22.864Z,100745.59
2023-01-21T07:17:52.378Z,100744.61
2023-01-21T07:20:22.812Z,100746.25
2023-01-21T07:22:50.987Z,100752.77
2023-01-21T07:25:19.658Z,100756.64
2023-01-21T07:27:48.375Z,100762.59
2023-01-21T07:30:19.412Z,100769.70
2023-01-21T07:32:48.007Z,100767.34
2023-01-21T07:35:16.510Z,100775.70
2023-01-21T07:37:44.974Z,100778.83
2023-01-21T07:40:13.787Z,100780.23
2023-01-21T07:42:42.165Z,100780.80
2023-01-21T07:45:11.065Z,100798.91
2023-01-21T07:47:39.339Z,100801.84
2023-01-21T07:50:08.971Z,100804.05
2023-01-21T07:52:37.938Z,100810.77
2023-01-21T07:55:08.060Z,100811.77
2023-01-21T07:57:36.366Z,100819.93
2023-01-21T08:00:05.244Z,100829.20
2023-01-21T08:02:41.129Z,100835.69
2023-01-21T08:05:10.461Z,100845.36
2023-01-21T08:07:38.794Z,100853.02
2023-01-21T08:10:07.957Z,100849.93
2023-01-21T08:12:36.170Z,100858.05
2023-01-21T08:15:05.455Z,100870.70
2023-01-21T08:17:33.757Z,100871.56
2023-01-21T08:20:01.944Z,100877.92
2023-01-21T08:22:30.221Z,100883.92
2023-01-21T08:24:58.608Z,100893.46
2023-01-21T08:27:26.891Z,100897.36
2023-01-21T08:29:55.314Z,100899.63
2023-01-21T08:32:23.965Z,100910.42
2023-01-21T08:34:52.351Z,100916.08
2023-01-21T08:37:20.738Z,100924.21
2023-01-21T08:39:49.420Z,100919.05
2023-01-21T08:42:17.816Z,100924.85
2023-01-21T08:44:46.705Z,100933.67
2023-01-21T08:47:15.288Z,100928.61
2023-01-21T08:49:44.702Z,100922.70
2023-01-21T08:52:13.492Z,100918.81
2023-01-21T08:54:42.092Z,100913.91
2023-01-21T08:57:10.569Z,100913.76
2023-01-21T08:59:39.158Z,100912.39
2023-01-21T09:02:08.802Z,100912.27
2023-01-21T09:04:37.461Z,100912.40
2023-01-21T09:07:05.741Z,100918.85
2023-01-21T09:09:34.743Z,100917.96
2023-01-21T09:12:05.989Z,100922.70
2023-01-21T09:14:34.275Z,100920.17
2023-01-21T09:17:02.457Z,100925.72
2023-01-21T09:19:30.741Z,100929.69
2023-01-21T09:21:59.121Z,100930.12
2023-01-21T09:24:28.019Z,100939.60
2023-01-21T09:26:56.611Z,100935.45
2023-01-21T09:29:25.196Z,100938.77
2023-01-21T09:31:53.635Z,100944.11
2023-01-21T09:34:21.960Z,100944.88
2023-01-21T09:36:50.146Z,100944.03
2023-01-21T09:39:18.431Z,100950.36
2023-01-21T09:41:52.511Z,100957.48
2023-01-21T09:44:29.932Z,100967.68
2023-01-21T09:47:07.208Z,100974.59
2023-01-21T09:49:44.506Z,100982.99
2023-01-21T09:52:31.309Z,100971.17
2023-01-21T09:55:01.648Z,100963.19
2023-01-21T09:57:32.884Z,100966.20
2023-01-21T10:00:20.211Z,100962.24
2023-01-21T10:02:53.803Z,100962.48
2023-01-21T10:05:24.961Z,100967.04
2023-01-21T10:08:18.304Z,100978.58
2023-01-21T10:11:03.782Z,100971.48
2023-01-21T10:14:03.479Z,100967.74
2023-01-21T10:16:38.893Z,100970.48
2023-01-21T10:19:17.746Z,100970.00
2023-01-21T10:21:57.199Z,100975.15
2023-01-21T10:24:31.603Z,100976.45
2023-01-21T10:27:00.964Z,100968.52
2023-01-21T10:29:29.518Z,100963.08
2023-01-21T10:32:04.132Z,100970.75
2023-01-21T10:34:40.005Z,100970.62
2023-01-21T10:37:37.223Z,100968.87
2023-01-21T10:40:17.431Z,100969.02
2023-01-21T10:43:06.551Z,100975.06
2023-01-21T10:45:37.993Z,100981.49
2023-01-21T10:48:28.976Z,100994.65
2023-01-21T10:51:13.756Z,101006.02
2023-01-21T10:53:56.966Z,101003.60
2023-01-21T10:56:38.454Z,101007.26
2023-01-21T10:59:12.975Z,101013.05
2023-01-21T11:01:46.271Z,101000.25
2023-01-21T11:04:24.684Z,100991.69
2023-01-21T11:07:05.303Z,100987.75
2023-01-21T11:09:39.876Z,100993.66
2023-01-21T11:12:12.556Z,100978.30
2023-01-21T11:14:41.043Z,100974.35
2023-01-21T11:17:10.347Z,100983.09
2023-01-21T11:19:38.472Z,100983.52
2023-01-21T11:22:12.946Z,100980.95
2023-01-21T11:24:49.737Z,100976.68
2023-01-21T11:27:38.507Z,100969.30
2023-01-21T11:30:48.306Z,100964.85
2023-01-21T11:33:19.249Z,100964.39
2023-01-21T11:35:48.210Z,100973.44
2023-01-21T11:38:35.401Z,100980.85
2023-01-21T11:41:11.173Z,100986.56
2023-01-21T11:43:47.115Z,100992.13
2023-01-21T11:46:34.563Z,100993.02
2023-01-21T11:49:08.521Z,100989.75
2023-01-21T11:51:39.315Z,100997.10
2023-01-21T11:54:18.924Z,101000.46
2023-01-21T11:56:58.210Z,100998.86
2023-01-21T11:59:34.349Z,101007.37
2023-01-21T12:02:24.369Z,101019.80
2023-01-21T12:05:21.392Z,101033.69
2023-01-21T12:07:52.648Z,101035.63
2023-01-21T12:10:33.305Z,101041.81
2023-01-21T12:13:17.043Z,101040.70
2023-01-21T12:16:16.677Z,101040.83
2023-01-21T12:19:00.265Z,101045.09
2023-01-21T12:21:47.065Z,101044.04
2023-01-21T12:24:47.815Z,101044.56
2023-01-21T12:27:46.564Z,101047.87
2023-01-21T12:30:27.330Z,101059.12
2023-01-21T12:33:02.071Z,101067.20
2023-01-21T12:35:36.485Z,101076.27
2023-01-21T12:38:14.211Z,101078.77
2023-01-21T12:41:00.369Z,101083.43
2023-01-21T12:43:46.764Z,101083.68
2023-01-21T12:46:41.012Z,101084.34
2023-01-21T12:49:25.298Z,101092.65
2023-01-21T12:52:00.115Z,101103.30
2023-01-21T12:54:54.395Z,101109.65
2023-01-21T12:57:38.448Z,101106.48
2023-01-21T13:00:29.862Z,101103.35
2023-01-21T13:03:04.168Z,101108.41
2023-01-21T13:06:05.301Z,101107.55
2023-01-21T13:08:55.270Z,101115.52
2023-01-21T13:11:33.274Z,101119.55
2023-01-21T13:14:07.290Z,101124.67
2023-01-21T13:16:44.310Z,101131.32
2023-01-21T13:19:14.992Z,101138.13
2023-01-21T13:22:14.090Z,101141.89
2023-01-21T13:25:05.103Z,101145.84
2023-01-21T13:27:47.698Z,101149.48
2023-01-21T13:30:55.219Z,101159.02
2023-01-21T13:33:47.719Z,101160.85
2023-01-21T13:36:25.507Z,101163.07
2023-01-21T13:39:32.780Z,101163.20
2023-01-21T13:42:09.872Z,101172.62
2023-01-21T13:44:52.275Z,101177.30
2023-01-21T13:47:31.910Z,101184.78
2023-01-21T13:50:19.900Z,101184.87
2023-01-21T13:53:00.607Z,101185.55
2023-01-21T13:56:04.805Z,101189.42
2023-01-21T13:58:48.956Z,101193.52
2023-01-21T14:01:26.543Z,101198.53
2023-01-21T14:04:04.976Z,101191.05
2023-01-21T14:06:49.554Z,101192.33
2023-01-21T14:09:28.195Z,101194.03
2023-01-21T14:12:05.525Z,101203.44
2023-01-21T14:14:52.630Z,101207.16
2023-01-21T14:17:59.597Z,101222.59
2023-01-21T14:20:28.192Z,101226.64
2023-01-21T14:23:05.474Z,101228.39
2023-01-21T14:25:34.280Z,101234.91
2023-01-21T14:28:26.081Z,101238.61
2023-01-21T14:31:19.452Z,101249.27
2023-01-21T14:34:14.016Z,101254.88
2023-01-21T14:37:01.960Z,101266.11
2023-01-21T14:40:13.721Z,101272.38
2023-01-21T14:42:43.752Z,101274.37
2023-01-21T14:45:14.506Z,101277.57
2023-01-21T14:47:48.906Z,101277.63
2023-01-21T14:50:47.420Z,101276.99
2023-01-21T14:53:23.539Z,101289.14
2023-01-21T14:56:07.584Z,101300.26
2023-01-21T14:58:37.280Z,101309.27
2023-01-21T15:01:07.392Z,101324.98
2023-01-21T15:03:48.291Z,101337.20
2023-01-21T15:06:22.304Z,101341.48
2023-01-21T15:08:56.630Z,101344.23
2023-01-21T15:11:34.830Z,101347.67
2023-01-21T15:14:12.400Z,101350.61
2023-01-21T15:16:43.294Z,101358.27
2023-01-21T15:19:11.748Z,101362.75
2023-01-21T15:21:43.405Z,101369.77
2023-01-21T15:24:30.929Z,101377.88
2023-01-21T15:27:21.010Z,101374.30
2023-01-21T15:29:55.327Z,101380.90
2023-01-21T15:32:32.510Z,101389.36
2023-01-21T15:35:05.301Z,101393.72
2023-01-21T15:37:38.683Z,101398.48
2023-01-21T15:40:36.860Z,101401.23
2023-01-21T15:43:05.141Z,101409.62
2023-01-21T15:45:49.020Z,101416.08
2023-01-21T15:48:17.260Z,101421.45
2023-01-21T15:50:56.327Z,101425.75
2023-01-21T15:53:33.982Z,101439.70
2023-01-21T15:56:41.196Z,101448.01
2023-01-21T15:59:26.317Z,101450.94
2023-01-21T16:02:16.641Z,101452.77
2023-01-21T16:04:50.000Z,101455.94
2023-01-21T16:07:27.494Z,101456.42
2023-01-21T16:10:04.590Z,101461.65
2023-01-21T16:12:50.376Z,101460.97
2023-01-21T16:15:49.043Z,101462.32
2023-01-21T16:18:50.781Z,101460.90
2023-01-21T16:21:29.597Z,101460.91
2023-01-21T16:24:01.549Z,101463.05
2023-01-21T16:26:33.104Z,101470.52
2023-01-21T16:29:02.117Z,101477.38
2023-01-21T16:31:30.470Z,101480.27
2023-01-21T16:33:58.902Z,101484.83
2023-01-21T16:36:27.067Z,101490.98
2023-01-21T16:38:55.558Z,101492.14
2023-01-21T16:41:25.423Z,101489.69
2023-01-21T16:44:01.742Z,101496.24
2023-01-21T16:46:37.790Z,101499.64
2023-01-21T16:49:17.811Z,101505.45
2023-01-21T16:51:56.676Z,101513.50
2023-01-21T16:54:29.783Z,101521.04
2023-01-21T16:57:20.977Z,101523.77
2023-01-21T16:59:49.772Z,101532.39
2023-01-21T17:02:24.121Z,101542.77
2023-01-21T17:04:57.183Z,101550.17
2023-01-21T17:07:33.744Z,101545.59
2023-01-21T17:10:17.601Z,101541.14
2023-01-21T17:12:50.230Z,101537.96
2023-01-21T17:15:36.315Z,101541.11
2023-01-21T17:18:21.177Z,101547.34
2023-01-21T17:20:53.205Z,101549.22
2023-01-21T17:23:25.784Z,101550.85
2023-01-21T17:26:23.312Z,101558.27
2023-01-21T17:29:09.098Z,101560.21
2023-01-21T17:31:42.993Z,101564.25
2023-01-21T17:34:11.179Z,101564.06
2023-01-21T17:36:40.875Z,101566.10
2023-01-21T17:39:10.885Z,101568.89
2023-01-21T17:41:46.276Z,101570.02
2023-01-21T17:44:21.211Z,101572.87
2023-01-21T17:46:52.950Z,101571.55
2023-01-21T17:49:26.549Z,101572.39
2023-01-21T17:51:55.665Z,101570.62
2023-01-21T17:54:26.623Z,101569.42
2023-01-21T17:56:58.161Z,101571.95
2023-01-21T17:59:41.176Z,101575.54
2023-01-21T18:02:12.946Z,101576.30
2023-01-21T18:04:42.142Z,101580.58
2023-01-21T18:07:23.210Z,101584.38
2023-01-21T18:09:53.321Z,101586.79
2023-01-21T18:12:22.117Z,101591.08
2023-01-21T18:14:50.413Z,101589.02
2023-01-21T18:17:22.274Z,101587.97
2023-01-21T18:19:51.241Z,101592.20
2023-01-21T18:22:27.133Z,101595.73
2023-01-21T18:24:55.820Z,101593.19
2023-01-21T18:27:26.194Z,101589.56
2023-01-21T18:29:54.842Z,101589.72
2023-01-21T18:32:23.228Z,101593.52
2023-01-21T18:34:51.638Z,101601.31
2023-01-21T18:37:20.673Z,101601.56
2023-01-21T18:39:48.992Z,101609.30
2023-01-21T18:42:18.205Z,101613.96
2023-01-21T18:44:46.474Z,101615.67
2023-01-21T18:47:18.246Z,101620.14
2023-01-21T18:49:49.514Z,101626.61
2023-01-21T18:52:19.895Z,101628.56
2023-01-21T18:54:48.307Z,101629.02
2023-01-21T18:57:22.828Z,101630.92
2023-01-21T18:59:51.426Z,101634.29
2023-01-21T19:02:21.462Z,101632.95
2023-01-21T19:04:50.026Z,101636.51
2023-01-21T19:07:23.967Z,101645.67
2023-01-21T19:09:52.422Z,101656.64
2023-01-21T19:12:21.443Z,101658.90
2023-01-21T19:14:49.622Z,101656.89
2023-01-21T19:17:30.168Z,101661.04
2023-01-21T19:19:58.751Z,101656.18
2023-01-21T19:22:27.246Z,101655.56
2023-01-21T19:24:55.635Z,101655.52
2023-01-21T19:27:30.760Z,101652.24
2023-01-21T19:29:59.350Z,101653.89
2023-01-21T19:32:27.640Z,101655.82
2023-01-21T19:34:57.909Z,101657.02
2023-01-21T19:37:26.255Z,101661.44
2023-01-21T19:39:54.939Z,101664.89
2023-01-21T19:42:23.320Z,101667.10
2023-01-21T19:44:51.809Z,101669.83
2023-01-21T19:47:28.377Z,101668.01
2023-01-21T19:49:56.968Z,101665.17
2023-01-21T19:52:25.355Z,101666.71
2023-01-21T19:54:55.168Z,101676.16
2023-01-21T19:57:23.762Z,101683.15
2023-01-21T19:59:53.475Z,101684.69
2023-01-21T20:02:21.861Z,101686.97
2023-01-21T20:04:50.550Z,101699.23
2023-01-21T20:07:20.670Z,101699.70
2023-01-21T20:09:49.667Z,101702.10
2023-01-21T20:12:17.950Z,101695.76
2023-01-21T20:14:46.131Z,101694.16
2023-01-21T20:17:14.517Z,101701.06
2023-01-21T20:19:42.807Z,101708.45
2023-01-21T20:22:12.817Z,101709.79
2023-01-21T20:24:41.423Z,101709.77
2023-01-21T20:27:14.263Z,101707.80
2023-01-21T20:29:49.630Z,101711.08
2023-01-21T20:32:24.569Z,101713.88
2023-01-21T20:34:52.757Z,101709.15
2023-01-21T20:37:20.943Z,101709.48
2023-01-21T20:39:49.527Z,101706.00
2023-01-21T20:42:17.732Z,101717.35
2023-01-21T20:44:46.088Z,101723.33
2023-01-21T20:47:14.616Z,101726.99
2023-01-21T20:49:43.778Z,101729.38
2023-01-21T20:52:11.954Z,101733.95
2023-01-21T20:54:40.541Z,101732.01
2023-01-21T20:57:14.865Z,101731.29
2023-01-21T20:59:43.246Z,101733.02
2023-01-21T21:02:12.466Z,101727.25
2023-01-21T21:04:41.241Z,101727.95
2023-01-21T21:07:16.194Z,101736.80
2023-01-21T21:09:44.974Z,101744.80
2023-01-21T21:12:13.256Z,101751.20
2023-01-21T21:14:41.636Z,101762.88
2023-01-21T21:17:12.366Z,101763.38
2023-01-21T21:19:40.667Z,101768.48
2023-01-21T21:22:08.842Z,101763.50
2023-01-21T21:24:37.533Z,101759.98
2023-01-21T21:27:05.915Z,101758.23
2023-01-21T21:29:34.296Z,101759.90
2023-01-21T21:32:02.944Z,101755.40
2023-01-21T21:34:31.578Z,101760.95
2023-01-21T21:36:59.965Z,101789.30
2023-01-21T21:39:28.868Z,101805.63
2023-01-21T21:42:16.379Z,101805.06
2023-01-21T21:44:44.965Z,101803.71
2023-01-21T21:47:31.975Z,101795.23
2023-01-21T21:50:00.358Z,101792.38
2023-01-21T21:52:28.745Z,101790.28
2023-01-21T21:54:57.134Z,101791.90
2023-01-21T21:57:25.512Z,101792.76
2023-01-21T21:59:54.001Z,101790.27
2023-01-21T22:02:22.462Z,101790.66
2023-01-21T22:04:55.072Z,101788.38
2023-01-21T22:07:23.654Z,101789.97
2023-01-21T22:09:52.243Z,101790.59
2023-01-21T22:12:20.525Z,101796.59
2023-01-21T22:14:48.722Z,101797.34
2023-01-21T22:17:17.090Z,101800.50
2023-01-21T22:19:45.389Z,101814.98
2023-01-21T22:22:13.759Z,101810.55
2023-01-21T22:24:44.394Z,101808.13
2023-01-21T22:27:13.392Z,101808.84
2023-01-21T22:29:41.782Z,101811.72
2023-01-21T22:32:10.879Z,101804.39
2023-01-21T22:34:39.165Z,101809.27
2023-01-21T22:37:07.746Z,101811.98
2023-01-21T22:39:36.130Z,101817.30
2023-01-21T22:42:05.247Z,101819.33
2023-01-21T22:44:33.514Z,101820.77
2023-01-21T22:47:02.104Z,101821.06
2023-01-21T22:49:30.285Z,101821.58
2023-01-21T22:51:58.771Z,101818.49
2023-01-21T22:54:27.110Z,101818.64
2023-01-21T22:56:55.857Z,101820.13
2023-01-21T22:59:24.436Z,101817.48
2023-01-21T23:01:52.715Z,101816.17
2023-01-21T23:04:21.213Z,101822.29
2023-01-21T23:06:54.893Z,101830.59
2023-01-21T23:09:23.499Z,101835.31
2023-01-21T23:11:52.918Z,101829.80
2023-01-21T23:14:21.187Z,101830.68
2023-01-21T23:16:52.643Z,101839.95
2023-01-21T23:19:21.028Z,101837.38
2023-01-21T23:21:49.217Z,101841.79
2023-01-21T23:24:18.518Z,101845.70
2023-01-21T23:26:47.407Z,101843.69
2023-01-21T23:29:15.590Z,101842.73
2023-01-21T23:31:44.374Z,101839.61
2023-01-21T23:34:14.571Z,101843.02
2023-01-21T23:36:42.992Z,101850.24
2023-01-21T23:39:11.581Z,101852.66
2023-01-21T23:41:40.075Z,101850.61
2023-01-21T23:44:10.640Z,101849.38
2023-01-21T23:46:39.297Z,101852.73
2023-01-21T23:49:08.246Z,101846.33
2023-01-21T23:51:36.474Z,101840.17
2023-01-21T23:54:05.058Z,101842.98
2023-01-21T23:56:33.457Z,101834.85
2023-01-21T23:59:01.854Z,101836.58
